Time;durP1;ratioP1;P1;durP2;ratioP2;P2;SDS_P1;SDS_P2;PMS_P1;PMS_P2;Temp;Humidity;BMP_temperature;BMP_pressure;BME280_temperature;BME280_humidity;BME280_pressure;Samples;Min_cycle;Max_cycle;Signal;HPM_P1;HPM_P2
2022/08/06 00:02:10;;;;;;;4.82;1.83;;;;;;;14.40;100.00;102584.09;5072117;28;20102;-71
2022/08/06 00:04:35;;;;;;;5.07;1.95;;;;;;;14.23;100.00;102588.88;5070891;28;20032;-72
2022/08/06 00:07:01;;;;;;;6.85;1.90;;;;;;;14.23;100.00;102594.16;5071160;28;20055;-71
2022/08/06 00:09:30;;;;;;;9.07;1.98;;;;;;;14.17;100.00;102592.25;5068061;28;20063;-72
2022/08/06 00:12:00;;;;;;;6.22;2.00;;;;;;;14.36;100.00;102596.31;5067999;28;20034;-72
2022/08/06 00:14:27;;;;;;;5.90;1.98;;;;;;;14.45;100.00;102588.66;5071134;28;20036;-71
2022/08/06 00:16:53;;;;;;;8.90;2.80;;;;;;;14.35;100.00;102594.53;5070498;28;20025;-71
2022/08/06 00:19:18;;;;;;;6.63;2.00;;;;;;;14.36;100.00;102591.03;5068733;28;20034;-71
2022/08/06 00:21:43;;;;;;;7.82;1.95;;;;;;;14.34;100.00;102593.63;5069936;28;20020;-72
2022/08/06 00:24:09;;;;;;;5.90;1.77;;;;;;;14.16;100.00;102594.00;5071176;28;20034;-72
2022/08/06 00:26:34;;;;;;;5.28;1.90;;;;;;;14.02;100.00;102595.31;5070884;28;20028;-71
2022/08/06 00:28:59;;;;;;;5.80;2.28;;;;;;;13.95;100.00;102593.34;5067703;28;20035;-72
2022/08/06 00:31:25;;;;;;;6.18;1.65;;;;;;;13.92;100.00;102601.22;5071817;28;20032;-71
2022/08/06 00:33:50;;;;;;;11.43;2.33;;;;;;;13.92;100.00;102602.09;5068820;28;20021;-71
2022/08/06 00:36:15;;;;;;;6.63;1.92;;;;;;;13.90;100.00;102605.53;5072381;28;20024;-71
2022/08/06 00:38:41;;;;;;;9.60;2.72;;;;;;;13.92;100.00;102609.16;5071823;28;20062;-71
2022/08/06 00:41:06;;;;;;;7.90;2.33;;;;;;;13.96;100.00;102611.91;5071599;28;20020;-71
2022/08/06 00:43:32;;;;;;;4.07;1.90;;;;;;;13.94;100.00;102623.31;5071394;28;20108;-72
2022/08/06 00:45:57;;;;;;;9.13;2.22;;;;;;;14.00;100.00;102626.16;5068281;28;20025;-72
2022/08/06 00:48:23;;;;;;;4.70;1.80;;;;;;;14.13;100.00;102620.41;5066537;28;20036;-71
2022/08/06 00:50:48;;;;;;;9.15;1.65;;;;;;;14.16;100.00;102625.78;5070933;28;20021;-71
2022/08/06 00:53:13;;;;;;;4.95;1.90;;;;;;;14.06;100.00;102626.34;5069721;28;20032;-70
2022/08/06 00:55:39;;;;;;;5.47;1.95;;;;;;;14.02;100.00;102624.44;5069979;28;20413;-72
2022/08/06 00:58:05;;;;;;;7.28;1.98;;;;;;;13.93;100.00;102632.09;5068662;28;20032;-72
2022/08/06 01:00:31;;;;;;;5.43;1.90;;;;;;;13.94;100.00;102628.59;5054854;28;20033;-72
2022/08/06 01:02:57;;;;;;;5.90;2.15;;;;;;;13.90;100.00;102632.00;5070663;28;20029;-72
2022/08/06 01:05:22;;;;;;;4.97;2.90;;;;;;;13.81;100.00;102628.22;5071261;28;20025;-71
2022/08/06 01:07:47;;;;;;;5.50;1.75;;;;;;;13.92;100.00;102636.50;5050599;28;20020;-72
2022/08/06 01:10:13;;;;;;;5.15;1.80;;;;;;;13.75;100.00;102628.00;5058129;28;20114;-70
2022/08/06 01:12:38;;;;;;;3.97;1.98;;;;;;;13.68;100.00;102635.72;5068101;28;20017;-71
2022/08/06 01:15:05;;;;;;;7.00;1.70;;;;;;;13.59;100.00;102637.22;5061568;28;20545;-72
2022/08/06 01:17:42;;;;;;;7.03;2.10;;;;;;;13.52;100.00;102640.47;5055331;28;20381;-71
2022/08/06 01:20:19;;;;;;;8.13;1.95;;;;;;;13.49;100.00;102641.28;5059220;28;20021;-71
2022/08/06 01:22:56;;;;;;;5.20;1.80;;;;;;;13.51;100.00;102643.09;5069863;28;20430;-70
2022/08/06 01:26:00;;;;;;;8.15;2.25;;;;;;;13.47;100.00;102643.00;5084990;28;20118;-72
2022/08/06 01:28:37;;;;;;;7.50;2.33;;;;;;;13.47;100.00;102643.00;5089552;28;20028;-71
2022/08/06 01:31:07;;;;;;;7.28;1.60;;;;;;;13.47;100.00;102647.38;5075646;28;20024;-71
2022/08/06 01:33:57;;;;;;;4.22;1.80;;;;;;;13.42;100.00;102647.22;5075365;28;20016;-71
2022/08/06 01:36:39;;;;;;;5.82;2.70;;;;;;;13.45;100.00;102646.44;5074845;28;21290;-72
2022/08/06 01:39:04;;;;;;;5.45;2.30;;;;;;;13.40;100.00;102642.72;5075048;28;20389;-72
2022/08/06 01:41:42;;;;;;;7.00;1.98;;;;;;;13.33;100.00;102641.56;5074850;28;20024;-72
2022/08/06 01:44:13;;;;;;;7.30;2.20;;;;;;;13.31;100.00;102643.28;5075507;28;20066;-71
2022/08/06 01:46:49;;;;;;;3.85;1.80;;;;;;;13.25;100.00;102635.13;5064093;28;20021;-71
2022/08/06 01:49:20;;;;;;;9.07;2.10;;;;;;;13.23;100.00;102635.09;5072115;28;20028;-71
2022/08/06 01:51:49;;;;;;;6.43;1.90;;;;;;;13.22;100.00;102646.50;5071185;28;20027;-72
2022/08/06 01:54:16;;;;;;;2.78;1.50;;;;;;;13.27;100.00;102641.38;5073144;28;20045;-71
2022/08/06 01:56:46;;;;;;;4.22;1.83;;;;;;;13.25;100.00;102643.06;5074026;28;20081;-71
2022/08/06 01:59:15;;;;;;;4.68;1.40;;;;;;;13.23;100.00;102647.41;5069540;28;20104;-70
2022/08/06 02:01:43;;;;;;;3.95;1.73;;;;;;;13.25;100.00;102636.06;5072164;28;20066;-71
2022/08/06 02:04:10;;;;;;;3.97;1.58;;;;;;;13.24;100.00;102643.91;5074655;28;20024;-72
2022/08/06 02:06:40;;;;;;;4.38;1.73;;;;;;;13.19;100.00;102634.94;5075573;28;20051;-71
2022/08/06 02:09:19;;;;;;;2.42;1.42;;;;;;;13.21;100.00;102636.78;5072973;28;20048;-71
2022/08/06 02:11:50;;;;;;;3.53;1.80;;;;;;;13.21;100.00;102642.06;5070862;28;20020;-71
2022/08/06 02:14:18;;;;;;;4.63;1.45;;;;;;;13.24;100.00;102639.53;5074955;28;20032;-70
2022/08/06 02:16:44;;;;;;;6.57;1.40;;;;;;;13.23;100.00;102653.59;5063485;28;20033;-72
2022/08/06 02:19:15;;;;;;;6.55;1.40;;;;;;;13.16;100.00;102641.91;5072712;28;20388;-72
2022/08/06 02:21:43;;;;;;;6.13;1.40;;;;;;;13.13;100.00;102647.09;5074495;28;20533;-72
2022/08/06 02:24:10;;;;;;;4.20;1.10;;;;;;;13.12;100.00;102640.00;5072883;28;20050;-71
2022/08/06 02:26:39;;;;;;;4.20;1.58;;;;;;;13.07;100.00;102646.84;5065899;28;20036;-71
2022/08/06 02:29:08;;;;;;;2.67;1.20;;;;;;;13.02;100.00;102640.50;5072176;28;20118;-71
2022/08/06 02:31:33;;;;;;;5.85;1.45;;;;;;;13.05;100.00;102643.28;5074362;28;20041;-72
2022/08/06 02:33:59;;;;;;;5.85;1.50;;;;;;;13.07;100.00;102643.31;5063519;28;20028;-71
2022/08/06 02:36:31;;;;;;;6.88;1.52;;;;;;;12.99;100.00;102643.03;5065875;28;20369;-72
2022/08/06 02:39:24;;;;;;;4.78;1.40;;;;;;;13.02;100.00;102648.44;5069560;28;20083;-71
2022/08/06 02:41:59;;;;;;;2.50;1.20;;;;;;;12.99;100.00;102645.69;5064479;28;20107;-71
2022/08/06 02:44:46;;;;;;;8.52;1.20;;;;;;;12.97;100.00;102652.69;5074211;28;20522;-70
2022/08/06 02:47:17;;;;;;;3.15;1.05;;;;;;;12.88;100.00;102649.69;5064274;28;20420;-71
2022/08/06 02:49:46;;;;;;;5.20;1.10;;;;;;;12.85;100.00;102641.69;5073283;28;20028;-70
2022/08/06 02:52:35;;;;;;;5.80;1.20;;;;;;;12.81;100.00;102646.81;5072573;28;20437;-71
2022/08/06 02:55:16;;;;;;;4.43;1.30;;;;;;;12.80;100.00;102647.69;5069096;28;20511;-71
2022/08/06 02:57:49;;;;;;;3.42;1.30;;;;;;;12.76;100.00;102651.03;5074819;28;20024;-71
2022/08/06 03:00:15;;;;;;;5.28;1.30;;;;;;;12.79;100.00;102661.72;5064397;28;20067;-71
2022/08/06 03:02:43;;;;;;;2.05;1.20;;;;;;;12.78;100.00;102654.66;5075001;28;20021;-72
2022/08/06 03:05:14;;;;;;;2.50;1.02;;;;;;;12.75;100.00;102661.53;5073917;28;20108;-72
2022/08/06 03:07:41;;;;;;;3.33;1.20;;;;;;;12.72;100.00;102654.41;5074546;28;20126;-72
2022/08/06 03:10:08;;;;;;;2.92;1.10;;;;;;;12.72;100.00;102656.16;5069919;28;20067;-71
2022/08/06 03:12:36;;;;;;;4.10;1.20;;;;;;;12.70;100.00;102660.50;5071473;28;20032;-70
2022/08/06 03:15:04;;;;;;;4.95;1.20;;;;;;;12.71;100.00;102663.19;5072661;28;20039;-71
2022/08/06 03:17:32;;;;;;;5.00;1.20;;;;;;;12.70;100.00;102665.78;5073030;28;20024;-72
2022/08/06 03:20:01;;;;;;;3.35;1.48;;;;;;;12.70;100.00;102671.97;5072406;28;20494;-71
2022/08/06 03:22:28;;;;;;;2.15;1.25;;;;;;;12.67;100.00;102669.22;5072259;28;20021;-71
2022/08/06 03:24:55;;;;;;;7.75;1.20;;;;;;;12.67;100.00;102663.00;5078533;28;20576;-73
2022/08/06 03:27:21;;;;;;;8.68;1.73;;;;;;;12.64;100.00;102664.72;5081092;28;20020;-71
2022/08/06 03:29:49;;;;;;;5.43;1.60;;;;;;;12.63;100.00;102659.38;5073146;28;20086;-72
2022/08/06 03:32:16;;;;;;;3.88;1.30;;;;;;;12.59;100.00;102668.03;5073967;28;20468;-71
2022/08/06 03:34:42;;;;;;;4.82;1.50;;;;;;;12.53;100.00;102662.50;5073301;28;20028;-70
2022/08/06 03:37:09;;;;;;;2.72;1.70;;;;;;;12.54;100.00;102665.19;5072484;28;20062;-71
2022/08/06 03:39:38;;;;;;;5.03;1.50;;;;;;;12.52;100.00;102668.63;5063531;28;20060;-70
2022/08/06 03:42:04;;;;;;;3.08;1.50;;;;;;;12.48;100.00;102675.53;5073524;28;20077;-71
2022/08/06 03:44:30;;;;;;;3.58;1.05;;;;;;;12.45;100.00;102671.03;5072837;28;20032;-70
2022/08/06 03:47:24;;;;;;;1.98;1.17;;;;;;;12.46;100.00;102672.81;5060711;28;20059;-70
2022/08/06 03:50:04;;;;;;;2.28;1.17;;;;;;;12.48;100.00;102673.78;5066376;28;20031;-70
2022/08/06 03:52:32;;;;;;;4.05;1.10;;;;;;;12.45;100.00;102678.03;5071814;28;20534;-72
2022/08/06 03:55:02;;;;;;;11.32;1.58;;;;;;;12.42;100.00;102686.75;5067541;28;20044;-72
2022/08/06 03:57:39;;;;;;;2.60;1.27;;;;;;;12.43;100.00;102679.75;5057697;28;20087;-72
2022/08/06 04:00:07;;;;;;;4.40;1.48;;;;;;;12.55;100.00;102682.84;5066461;28;20376;-71
2022/08/06 04:02:39;;;;;;;4.63;1.60;;;;;;;12.51;100.00;102685.28;5069307;28;20029;-72
2022/08/06 04:05:06;;;;;;;3.03;1.20;;;;;;;12.54;100.00;102691.59;5072745;28;20021;-71
2022/08/06 04:07:32;;;;;;;3.80;1.55;;;;;;;12.52;100.00;102687.09;5064887;28;20108;-72
2022/08/06 04:10:00;;;;;;;4.80;1.70;;;;;;;12.51;100.00;102688.84;5072087;28;20024;-71
2022/08/06 04:12:27;;;;;;;2.42;1.30;;;;;;;12.47;100.00;102697.50;5073295;28;20529;-70
2022/08/06 04:14:53;;;;;;;8.85;1.70;;;;;;;12.41;100.00;102700.81;5060331;28;20079;-71
2022/08/06 04:17:20;;;;;;;3.25;1.30;;;;;;;12.38;100.00;102691.84;5073336;28;20032;-70
2022/08/06 04:19:48;;;;;;;6.00;1.70;;;;;;;12.35;100.00;102695.28;5070977;28;20036;-71
2022/08/06 04:22:13;;;;;;;4.82;1.60;;;;;;;12.35;100.00;102697.03;5072260;28;20430;-70
2022/08/06 04:24:39;;;;;;;11.60;1.67;;;;;;;12.31;100.00;102699.53;5069088;28;20028;-72
2022/08/06 04:27:06;;;;;;;4.07;1.70;;;;;;;12.30;100.00;102691.53;5074065;28;20490;-71
2022/08/06 04:29:35;;;;;;;5.43;2.10;;;;;;;12.32;100.00;102695.16;5070724;28;20025;-70
2022/08/06 04:32:01;;;;;;;8.63;2.95;;;;;;;12.32;100.00;102696.06;5058972;28;20047;-72
2022/08/06 04:34:29;;;;;;;10.85;3.25;;;;;;;12.31;100.00;102698.63;5058219;28;20032;-71
2022/08/06 04:36:59;;;;;;;8.73;2.72;;;;;;;12.34;100.00;102700.50;5073111;28;20024;-72
2022/08/06 04:39:26;;;;;;;3.53;1.90;;;;;;;12.30;100.00;102691.53;5063525;28;20538;-72
2022/08/06 04:41:52;;;;;;;9.00;1.67;;;;;;;12.32;100.00;102703.09;5055243;28;20021;-72
2022/08/06 04:44:18;;;;;;;3.63;1.80;;;;;;;12.32;100.00;102703.97;5068056;28;20028;-72
2022/08/06 04:46:48;;;;;;;3.13;1.90;;;;;;;12.34;100.00;102706.66;5068304;28;20039;-71
2022/08/06 04:49:17;;;;;;;7.15;1.60;;;;;;;12.38;100.00;102700.66;5066816;28;20044;-71
2022/08/06 04:51:47;;;;;;;6.05;1.70;;;;;;;12.40;100.00;102703.34;5072740;28;20060;-71
2022/08/06 04:54:15;;;;;;;5.28;1.55;;;;;;;12.43;100.00;102708.78;5064760;28;20056;-70
2022/08/06 04:56:42;;;;;;;4.07;1.55;;;;;;;12.45;100.00;102717.66;5074964;28;20136;-71
2022/08/06 04:59:08;;;;;;;2.47;1.27;;;;;;;12.47;100.00;102708.06;5070798;28;20083;-72
2022/08/06 05:01:35;;;;;;;5.05;1.60;;;;;;;12.51;100.00;102722.25;5063133;28;20036;-71
2022/08/06 05:04:01;;;;;;;6.15;1.52;;;;;;;12.58;100.00;102714.66;5061670;28;20037;-71
2022/08/06 05:06:50;;;;;;;8.45;1.63;;;;;;;12.64;100.00;102721.91;5056906;28;20024;-72
2022/08/06 05:09:20;;;;;;;2.63;1.67;;;;;;;12.74;100.00;102720.53;5056100;28;20475;-72
2022/08/06 05:11:59;;;;;;;3.58;1.50;;;;;;;12.80;100.00;102718.09;5058739;28;20064;-72
2022/08/06 05:14:35;;;;;;;3.95;1.75;;;;;;;12.89;100.00;102718.44;5056717;28;20500;-72
2022/08/06 05:17:02;;;;;;;5.47;1.60;;;;;;;12.98;100.00;102725.81;5057999;28;20100;-72
2022/08/06 05:19:34;;;;;;;5.18;1.80;;;;;;;13.03;100.00;102724.22;5066029;28;20476;-72
2022/08/06 05:22:01;;;;;;;4.27;1.50;;;;;;;13.08;100.00;102727.94;5056761;28;20082;-71
2022/08/06 05:24:27;;;;;;;5.65;1.85;;;;;;;13.13;100.00;102723.75;5061859;28;20287;-71
2022/08/06 05:26:53;;;;;;;7.88;1.60;;;;;;;13.18;100.00;102726.53;5069240;28;20047;-72
2022/08/06 05:29:20;;;;;;;3.28;1.35;;;;;;;13.23;100.00;102738.19;5058250;28;20021;-71
2022/08/06 05:31:46;;;;;;;4.60;1.40;;;;;;;13.31;100.00;102735.81;5072211;28;20083;-72
2022/08/06 05:34:12;;;;;;;2.92;1.52;;;;;;;13.37;100.00;102744.00;5059974;28;20528;-72
2022/08/06 05:36:38;;;;;;;4.38;1.30;;;;;;;13.45;100.00;102745.16;5072102;28;20074;-71
2022/08/06 05:39:04;;;;;;;4.88;1.55;;;;;;;13.53;100.00;102752.50;5065692;28;20040;-72
2022/08/06 05:41:30;;;;;;;5.35;1.45;;;;;;;13.59;100.00;102755.31;5057784;28;20029;-72
2022/08/06 05:43:55;;;;;;;5.32;1.83;;;;;;;13.67;100.00;102759.13;5059968;28;20112;-71
2022/08/06 05:46:23;;;;;;;6.07;1.83;;;;;;;13.74;100.00;102757.59;5069657;28;20028;-71
2022/08/06 05:48:59;;;;;;;3.30;1.23;;;;;;;13.82;100.00;102756.13;5071160;28;20028;-71
2022/08/06 05:51:46;;;;;;;3.75;1.10;;;;;;;13.92;100.00;102765.28;5062813;28;20064;-71
2022/08/06 05:54:32;;;;;;;2.00;1.20;;;;;;;14.02;100.00;102764.72;5066628;28;20056;-72
2022/08/06 05:57:13;;;;;;;2.33;1.15;;;;;;;14.10;100.00;102763.22;5061159;28;20435;-71
2022/08/06 05:59:50;;;;;;;2.90;1.27;;;;;;;14.16;100.00;102762.53;5060408;28;20036;-71
2022/08/06 06:02:18;;;;;;;4.60;0.90;;;;;;;14.24;100.00;102776.03;5073318;28;20032;-71
2022/08/06 06:04:46;;;;;;;6.20;1.10;;;;;;;14.32;100.00;102769.22;5062070;28;20112;-72
2022/08/06 06:07:12;;;;;;;3.28;1.13;;;;;;;14.40;100.00;102780.97;5070049;28;20118;-72
2022/08/06 06:09:38;;;;;;;3.25;1.08;;;;;;;14.49;100.00;102783.03;5073710;28;20040;-72
2022/08/06 06:12:04;;;;;;;2.30;0.90;;;;;;;14.58;100.00;102778.03;5074712;28;20496;-72
2022/08/06 06:14:40;;;;;;;1.48;0.80;;;;;;;14.66;100.00;102783.56;5061388;28;20111;-72
2022/08/06 06:17:33;;;;;;;3.85;0.80;;;;;;;14.75;100.00;102786.50;5074103;28;20032;-71
2022/08/06 06:20:13;;;;;;;2.43;1.00;;;;;;;14.84;100.00;102781.50;5072913;28;20433;-71
2022/08/06 06:22:57;;;;;;;4.28;1.73;;;;;;;14.91;100.00;102787.88;5060132;28;20289;-72
2022/08/06 06:25:28;;;;;;;;;;;;;;;14.96;100.00;102780.97;5077454;28;20031;-72
2022/08/06 06:28:02;;;;;;;6.50;0.95;;;;;;;15.01;100.00;102784.63;5074112;28;19952;-69
2022/08/06 06:30:44;;;;;;;2.92;0.90;;;;;;;15.08;100.00;102791.00;5070369;28;20036;-67
2022/08/06 06:33:19;;;;;;;1.92;0.65;;;;;;;15.11;100.00;102791.13;5055265;28;20023;-68
2022/08/06 06:35:55;;;;;;;3.47;0.75;;;;;;;15.17;100.00;102793.94;5072405;28;20032;-68
2022/08/06 06:38:29;;;;;;;3.13;0.50;;;;;;;15.29;100.00;102797.81;5067490;28;20017;-68
2022/08/06 06:41:05;;;;;;;5.35;1.17;;;;;;;15.41;100.00;102791.94;5063685;28;20039;-69
2022/08/06 06:43:40;;;;;;;2.05;0.50;;;;;;;15.54;100.00;102794.06;5071901;28;20035;-69
2022/08/06 06:46:18;;;;;;;1.92;0.60;;;;;;;15.67;100.00;102800.63;5071910;28;20032;-68
2022/08/06 06:48:49;;;;;;;3.17;0.52;;;;;;;15.75;100.00;102801.72;5056191;28;20033;-69
2022/08/06 06:51:43;;;;;;;4.10;0.90;;;;;;;15.84;100.00;102802.00;5059689;28;20479;-67
2022/08/06 06:54:16;;;;;;;2.60;0.90;;;;;;;15.91;100.00;102805.72;5073962;28;20051;-73
2022/08/06 06:56:45;;;;;;;2.53;0.80;;;;;;;15.90;100.00;102801.25;5075407;28;20480;-71
2022/08/06 06:59:14;;;;;;;3.47;1.02;;;;;;;15.98;100.00;102801.47;5062362;28;20021;-72
2022/08/06 07:01:40;;;;;;;3.92;0.77;;;;;;;16.02;100.00;102798.91;5055198;28;20029;-72
2022/08/06 07:04:11;;;;;;;2.47;0.60;;;;;;;16.10;100.00;102799.13;5092093;28;20477;-71
2022/08/06 07:06:38;;;;;;;1.50;0.50;;;;;;;16.15;100.00;102800.09;5060702;28;20080;-71
2022/08/06 07:09:05;;;;;;;3.97;0.90;;;;;;;16.10;100.00;102804.44;5068493;28;20123;-72
2022/08/06 07:11:31;;;;;;;2.95;0.80;;;;;;;16.16;100.00;102804.56;5073095;28;20020;-70
2022/08/06 07:13:59;;;;;;;5.85;0.68;;;;;;;16.14;100.00;102806.31;5073968;28;20069;-72
2022/08/06 07:16:25;;;;;;;1.23;0.50;;;;;;;16.18;100.00;102816.13;5071226;28;20174;-72
2022/08/06 07:18:53;;;;;;;3.42;0.80;;;;;;;16.29;100.00;102812.84;5066758;28;20419;-72
2022/08/06 07:21:20;;;;;;;2.95;0.60;;;;;;;16.37;100.00;102813.03;5067719;28;20016;-67
2022/08/06 07:23:51;;;;;;;3.53;0.60;;;;;;;16.37;100.00;102813.03;5054813;28;20485;-72
2022/08/06 07:26:19;;;;;;;1.55;0.70;;;;;;;16.47;100.00;102818.59;5071366;28;20380;-70
2022/08/06 07:28:46;;;;;;;5.63;0.75;;;;;;;16.58;100.00;102823.28;5074219;28;20028;-72
2022/08/06 07:31:12;;;;;;;2.58;0.80;;;;;;;16.60;100.00;102824.19;5072317;28;20052;-71
2022/08/06 07:33:40;;;;;;;1.85;0.70;;;;;;;16.68;100.00;102823.53;5072059;28;20039;-72
2022/08/06 07:36:06;;;;;;;2.00;0.80;;;;;;;16.78;100.00;102823.72;5064359;28;20131;-72
2022/08/06 07:38:34;;;;;;;2.85;0.70;;;;;;;16.89;100.00;102824.91;5081291;28;20028;-71
2022/08/06 07:41:03;;;;;;;2.25;0.80;;;;;;;17.04;100.00;102829.66;5085692;28;20027;-70
2022/08/06 07:43:36;;;;;;;3.63;0.68;;;;;;;17.17;100.00;102826.41;5086120;28;20024;-73
2022/08/06 07:46:05;;;;;;;3.55;0.70;;;;;;;17.28;100.00;102823.06;5078714;28;20031;-73
2022/08/06 07:48:35;;;;;;;4.22;0.65;;;;;;;17.33;100.00;102832.03;5076015;28;20452;-71
2022/08/06 07:51:02;;;;;;;1.27;0.52;;;;;;;17.38;100.00;102829.44;5072980;28;20020;-72
2022/08/06 07:53:30;;;;;;;3.17;0.82;;;;;;;17.45;100.00;102831.38;5069391;28;20032;-73
2022/08/06 07:55:56;;;;;;;2.55;0.60;;;;;;;17.45;100.00;102828.72;5072460;28;20059;-71
2022/08/06 07:58:22;;;;;;;3.85;0.80;;;;;;;17.43;100.00;102826.03;5067191;28;20118;-70
2022/08/06 08:00:48;;;;;;;3.70;0.82;;;;;;;17.40;100.00;102827.72;5068384;28;20090;-72
2022/08/06 08:08:48;;;;;;;3.65;0.70;;;;;;;17.30;100.00;102842.63;5060705;28;20380;-72
2022/08/06 08:11:15;;;;;;;3.88;0.93;;;;;;;17.24;100.00;102845.13;5071043;28;20024;-72
2022/08/06 08:13:41;;;;;;;1.45;0.63;;;;;;;17.17;100.00;102842.38;5064103;28;20047;-74
2022/08/06 08:16:08;;;;;;;4.43;1.10;;;;;;;17.12;100.00;102844.03;5064090;28;20017;-73
2022/08/06 08:18:34;;;;;;;2.47;0.70;;;;;;;17.11;100.00;102841.34;5071568;28;20028;-74
2022/08/06 08:21:01;;;;;;;2.33;0.73;;;;;;;17.15;100.00;102841.41;5055685;28;20033;-70
2022/08/06 08:23:30;;;;;;;2.22;0.50;;;;;;;17.30;100.00;102842.63;5066304;28;20036;-74
2022/08/06 08:25:58;;;;;;;2.22;0.68;;;;;;;17.50;100.00;102846.56;5070146;28;20086;-68
2022/08/06 08:28:23;;;;;;;2.08;0.50;;;;;;;17.69;100.00;102845.16;5069572;28;20020;-71
2022/08/06 08:30:49;;;;;;;2.67;0.60;;;;;;;17.84;100.00;102841.91;5066966;28;20384;-71
2022/08/06 08:33:15;;;;;;;3.72;0.63;;;;;;;18.02;100.00;102848.47;5053266;28;20037;-70
2022/08/06 08:35:41;;;;;;;0.85;0.50;;;;;;;18.06;100.00;102852.09;5053166;28;20030;-70
2022/08/06 08:38:06;;;;;;;2.60;0.55;;;;;;;18.05;100.00;102855.63;5053183;28;20381;-72
2022/08/06 08:40:34;;;;;;;2.00;0.57;;;;;;;17.98;100.00;102851.94;5067083;28;20028;-72
2022/08/06 08:43:01;;;;;;;1.10;0.50;;;;;;;17.99;100.00;102851.09;5073050;28;20420;-71
2022/08/06 08:45:28;;;;;;;1.30;0.52;;;;;;;18.06;100.00;102852.09;5071938;28;20033;-73
2022/08/06 08:47:56;;;;;;;1.42;0.50;;;;;;;18.11;100.00;102853.03;5070558;28;20036;-71
2022/08/06 08:50:25;;;;;;;0.68;0.40;;;;;;;18.25;100.00;102851.53;5056297;28;20020;-71
2022/08/06 08:52:55;;;;;;;2.90;0.60;;;;;;;18.45;100.00;102849.19;5058183;28;20085;-71
2022/08/06 08:55:25;;;;;;;1.83;0.60;;;;;;;18.62;97.16;102848.56;5073185;28;20052;-70
2022/08/06 08:57:52;;;;;;;3.30;0.65;;;;;;;18.81;95.50;102850.59;5071918;28;20025;-70
2022/08/06 09:00:18;;;;;;;4.30;0.60;;;;;;;18.99;94.00;102841.09;5072348;28;20036;-69
2022/08/06 09:02:44;;;;;;;3.38;0.52;;;;;;;19.12;94.74;102845.72;5059647;28;20036;-70
2022/08/06 09:05:10;;;;;;;4.60;0.60;;;;;;;19.25;93.69;102844.13;5052805;28;20366;-70
2022/08/06 09:07:37;;;;;;;0.95;0.50;;;;;;;19.43;93.80;102846.13;5052740;28;20036;-72
2022/08/06 09:10:04;;;;;;;2.72;0.70;;;;;;;19.57;90.76;102854.28;5052799;28;20104;-71
2022/08/06 09:12:30;;;;;;;2.83;0.50;;;;;;;19.76;89.31;102859.81;5063298;28;20066;-72
2022/08/06 09:14:56;;;;;;;1.70;0.63;;;;;;;19.72;84.06;102853.53;5072226;28;20492;-71
2022/08/06 09:17:21;;;;;;;1.23;0.80;;;;;;;19.55;82.49;102856.94;5060863;28;20037;-73
2022/08/06 09:19:48;;;;;;;3.60;0.52;;;;;;;19.54;84.12;102859.59;5069001;28;20407;-73
2022/08/06 09:22:13;;;;;;;0.80;0.38;;;;;;;19.62;85.67;102849.88;5071659;28;20404;-71
2022/08/06 09:24:39;;;;;;;1.35;0.65;;;;;;;19.74;84.23;102851.81;5068071;28;20039;-71
2022/08/06 09:27:06;;;;;;;2.00;0.50;;;;;;;19.87;82.52;102853.75;5070220;28;20020;-73
2022/08/06 09:29:33;;;;;;;2.03;0.50;;;;;;;20.04;80.57;102848.56;5072767;28;20028;-73
2022/08/06 09:31:59;;;;;;;3.17;0.70;;;;;;;20.23;76.60;102846.06;5071984;28;20025;-72
2022/08/06 09:34:41;;;;;;;1.88;0.60;;;;;;;20.36;75.77;102849.72;5072392;28;20424;-72
2022/08/06 09:37:07;;;;;;;1.40;0.55;;;;;;;20.51;79.67;102847.16;5071414;28;20431;-71
2022/08/06 09:39:37;;;;;;;1.50;0.47;;;;;;;20.54;74.05;102841.84;5075528;28;20026;-71
2022/08/06 09:42:03;;;;;;;1.42;0.57;;;;;;;20.53;76.15;102845.38;5075615;28;20031;-72
2022/08/06 09:44:28;;;;;;;2.15;0.60;;;;;;;20.56;76.45;102849.88;5076303;28;20025;-72
2022/08/06 09:46:55;;;;;;;2.15;0.50;;;;;;;20.52;74.41;102851.63;5076078;28;20025;-71
2022/08/06 09:49:20;;;;;;;1.15;0.77;;;;;;;20.47;76.55;102850.72;5073965;28;20075;-71
2022/08/06 09:51:46;;;;;;;1.90;0.52;;;;;;;20.41;74.55;102850.66;5074417;28;20020;-72
2022/08/06 09:54:15;;;;;;;2.13;0.63;;;;;;;20.44;74.39;102845.31;5073592;28;20056;-72
2022/08/06 09:56:41;;;;;;;5.68;0.60;;;;;;;20.43;75.72;102853.31;5075922;28;20066;-72
2022/08/06 09:59:09;;;;;;;0.75;0.32;;;;;;;20.50;73.80;102856.06;5075580;28;20036;-72
2022/08/06 10:01:42;;;;;;;1.67;0.52;;;;;;;20.64;77.43;102852.59;5075742;28;20055;-72
2022/08/06 10:04:27;;;;;;;0.73;0.40;;;;;;;20.77;75.24;102849.16;5074631;28;20094;-71
2022/08/06 10:06:55;;;;;;;1.50;0.40;;;;;;;20.89;73.40;102853.69;5076252;28;20456;-73
2022/08/06 10:09:22;;;;;;;0.90;0.70;;;;;;;21.11;74.94;102857.38;5075681;28;20024;-72
2022/08/06 10:11:47;;;;;;;1.13;0.30;;;;;;;21.38;70.20;102847.66;5075586;28;20059;-71
2022/08/06 10:14:24;;;;;;;0.80;0.32;;;;;;;21.53;69.05;102853.09;5074446;28;20446;-72
2022/08/06 10:17:10;;;;;;;1.77;0.60;;;;;;;21.53;71.23;102857.56;5075394;28;20479;-72
2022/08/06 10:19:38;;;;;;;0.93;0.50;;;;;;;21.54;73.69;102860.25;5075306;28;20029;-72
2022/08/06 10:22:07;;;;;;;0.82;0.30;;;;;;;21.58;69.80;102860.25;5074116;28;20025;-71
2022/08/06 10:24:40;;;;;;;1.55;0.60;;;;;;;21.55;66.22;102856.69;5075400;28;20029;-69
2022/08/06 10:27:07;;;;;;;;;;;;;;;21.57;69.94;102859.38;5075726;28;20477;-70
2022/08/06 10:29:38;;;;;;;3.05;0.60;;;;;;;21.72;71.53;102855.84;5075190;28;19912;-70
2022/08/06 10:32:07;;;;;;;1.48;0.50;;;;;;;21.69;68.06;102866.50;5074049;28;20024;-70
2022/08/06 10:34:35;;;;;;;5.15;0.60;;;;;;;21.66;69.05;102863.84;5075123;28;20389;-70
2022/08/06 10:37:05;;;;;;;2.03;0.60;;;;;;;21.73;73.88;102863.88;5074992;28;20017;-69
2022/08/06 10:39:38;;;;;;;0.82;0.50;;;;;;;21.97;66.97;102861.22;5075061;28;20134;-70
2022/08/06 10:42:04;;;;;;;;;;;;;;;21.88;62.87;102857.63;5075265;28;20016;-70
2022/08/06 10:44:31;;;;;;;1.60;0.40;;;;;;;21.88;62.34;102856.72;5073568;28;19916;-69
2022/08/06 10:46:58;;;;;;;1.83;0.60;;;;;;;21.96;60.86;102859.44;5074806;28;20103;-69
2022/08/06 10:49:24;;;;;;;0.70;0.43;;;;;;;22.14;61.74;102856.78;5074382;28;20115;-70
2022/08/06 10:51:50;;;;;;;1.58;0.70;;;;;;;22.31;60.07;102859.44;5074018;28;20029;-69
2022/08/06 10:54:16;;;;;;;5.93;0.52;;;;;;;22.58;62.70;102862.16;5074462;28;20048;-70
2022/08/06 10:56:42;;;;;;;5.00;0.55;;;;;;;22.54;57.00;102858.56;5074451;28;20384;-69
2022/08/06 10:59:08;;;;;;;2.15;0.32;;;;;;;22.53;58.81;102860.38;5074431;28;20025;-70
2022/08/06 11:01:43;;;;;;;1.48;0.30;;;;;;;22.14;59.85;102859.44;5074232;28;20029;-69
2022/08/06 11:04:44;;;;;;;1.00;0.40;;;;;;;21.98;60.58;102860.34;5074532;28;20024;-70
2022/08/06 11:07:33;;;;;;;0.60;0.20;;;;;;;22.31;62.38;102869.28;5074522;28;20027;-70
2022/08/06 11:10:24;;;;;;;2.05;0.35;;;;;;;22.36;59.48;102849.63;5067677;28;20364;-70
2022/08/06 11:13:18;;;;;;;2.13;0.47;;;;;;;22.37;59.82;102856.78;5073045;28;20028;-69
2022/08/06 11:15:44;;;;;;;0.73;0.40;;;;;;;22.21;62.50;102857.66;5074424;28;20043;-69
2022/08/06 11:18:11;;;;;;;3.53;0.50;;;;;;;22.24;64.45;102858.53;5074079;28;20032;-70
2022/08/06 11:20:48;;;;;;;1.02;0.50;;;;;;;22.66;63.68;102849.59;5073969;28;20036;-70
2022/08/06 11:23:14;;;;;;;2.47;0.52;;;;;;;23.05;57.80;102847.72;5074079;28;20036;-70
2022/08/06 11:25:47;;;;;;;2.20;0.60;;;;;;;23.35;56.75;102840.44;5073874;28;20017;-70
2022/08/06 11:28:15;;;;;;;1.13;0.50;;;;;;;23.53;52.91;102840.31;5072723;28;20275;-70
2022/08/06 11:30:40;;;;;;;1.55;0.55;;;;;;;23.76;53.94;102842.00;5073918;28;20397;-70
2022/08/06 11:33:06;;;;;;;0.98;0.40;;;;;;;23.97;51.57;102840.06;5073924;28;20170;-68
2022/08/06 11:35:34;;;;;;;0.93;0.30;;;;;;;24.21;50.97;102844.38;5073866;28;20498;-70
2022/08/06 11:38:12;;;;;;;3.08;0.60;;;;;;;24.54;53.09;102843.16;5073661;28;20082;-69